sensor_id;sensor_type;location;lat;lon;timestamp;P1;durP1;ratioP1;P2;durP2;ratioP2
17382;SDS011;8809;51.892;8.384;2024-03-17T00:01:03;2.78;;;2.25;;
17382;SDS011;8809;51.892;8.384;2024-03-17T00:03:29;3.42;;;2.13;;
17382;SDS011;8809;51.892;8.384;2024-03-17T00:05:57;4.20;;;2.30;;
17382;SDS011;8809;51.892;8.384;2024-03-17T00:08:25;3.92;;;2.38;;
17382;SDS011;8809;51.892;8.384;2024-03-17T00:10:52;3.20;;;2.20;;
17382;SDS011;8809;51.892;8.384;2024-03-17T00:13:18;3.65;;;2.00;;
17382;SDS011;8809;51.892;8.384;2024-03-17T00:15:46;5.00;;;2.47;;
17382;SDS011;8809;51.892;8.384;2024-03-17T00:18:13;3.38;;;2.55;;
17382;SDS011;8809;51.892;8.384;2024-03-17T00:20:40;4.18;;;2.83;;
17382;SDS011;8809;51.892;8.384;2024-03-17T00:23:06;2.95;;;2.33;;
17382;SDS011;8809;51.892;8.384;2024-03-17T00:25:36;3.60;;;2.45;;
17382;SDS011;8809;51.892;8.384;2024-03-17T00:28:02;3.20;;;2.38;;
17382;SDS011;8809;51.892;8.384;2024-03-17T00:30:29;3.00;;;2.38;;
17382;SDS011;8809;51.892;8.384;2024-03-17T00:32:56;3.72;;;2.45;;
17382;SDS011;8809;51.892;8.384;2024-03-17T00:35:24;4.15;;;2.97;;
17382;SDS011;8809;51.892;8.384;2024-03-17T00:37:50;5.68;;;3.03;;
17382;SDS011;8809;51.892;8.384;2024-03-17T00:40:18;3.72;;;2.38;;
17382;SDS011;8809;51.892;8.384;2024-03-17T00:42:47;3.90;;;2.38;;
17382;SDS011;8809;51.892;8.384;2024-03-17T00:45:14;4.10;;;2.42;;
17382;SDS011;8809;51.892;8.384;2024-03-17T00:47:44;5.20;;;2.75;;
17382;SDS011;8809;51.892;8.384;2024-03-17T00:50:10;4.95;;;2.80;;
17382;SDS011;8809;51.892;8.384;2024-03-17T00:52:38;5.47;;;2.70;;
17382;SDS011;8809;51.892;8.384;2024-03-17T00:55:04;6.03;;;3.25;;
17382;SDS011;8809;51.892;8.384;2024-03-17T00:57:32;3.58;;;2.88;;
17382;SDS011;8809;51.892;8.384;2024-03-17T01:00:00;5.82;;;3.17;;
17382;SDS011;8809;51.892;8.384;2024-03-17T01:02:28;3.72;;;2.78;;
17382;SDS011;8809;51.892;8.384;2024-03-17T01:04:55;4.50;;;2.70;;
17382;SDS011;8809;51.892;8.384;2024-03-17T01:07:22;5.05;;;3.20;;
17382;SDS011;8809;51.892;8.384;2024-03-17T01:09:48;4.72;;;2.92;;
17382;SDS011;8809;51.892;8.384;2024-03-17T01:12:15;4.38;;;2.63;;
17382;SDS011;8809;51.892;8.384;2024-03-17T01:14:41;4.57;;;3.10;;
17382;SDS011;8809;51.892;8.384;2024-03-17T01:17:10;4.00;;;2.95;;
17382;SDS011;8809;51.892;8.384;2024-03-17T01:19:35;5.60;;;3.13;;
17382;SDS011;8809;51.892;8.384;2024-03-17T01:22:03;4.72;;;3.10;;
17382;SDS011;8809;51.892;8.384;2024-03-17T01:24:29;4.32;;;2.90;;
17382;SDS011;8809;51.892;8.384;2024-03-17T01:26:57;5.40;;;3.33;;
17382;SDS011;8809;51.892;8.384;2024-03-17T01:29:24;3.55;;;2.70;;
17382;SDS011;8809;51.892;8.384;2024-03-17T01:31:51;5.65;;;3.20;;
17382;SDS011;8809;51.892;8.384;2024-03-17T01:34:19;5.30;;;2.78;;
17382;SDS011;8809;51.892;8.384;2024-03-17T01:36:46;4.80;;;3.08;;
17382;SDS011;8809;51.892;8.384;2024-03-17T01:39:12;5.70;;;3.35;;
17382;SDS011;8809;51.892;8.384;2024-03-17T01:41:41;4.00;;;2.85;;
17382;SDS011;8809;51.892;8.384;2024-03-17T01:44:07;5.07;;;3.00;;
17382;SDS011;8809;51.892;8.384;2024-03-17T01:46:48;4.68;;;3.10;;
17382;SDS011;8809;51.892;8.384;2024-03-17T01:49:14;4.88;;;3.10;;
17382;SDS011;8809;51.892;8.384;2024-03-17T01:51:42;4.00;;;3.20;;
17382;SDS011;8809;51.892;8.384;2024-03-17T01:54:10;4.35;;;3.10;;
17382;SDS011;8809;51.892;8.384;2024-03-17T01:56:38;4.55;;;3.25;;
17382;SDS011;8809;51.892;8.384;2024-03-17T01:59:05;5.72;;;3.20;;
17382;SDS011;8809;51.892;8.384;2024-03-17T02:01:32;8.60;;;3.58;;
17382;SDS011;8809;51.892;8.384;2024-03-17T02:03:59;6.63;;;3.50;;
17382;SDS011;8809;51.892;8.384;2024-03-17T02:06:26;4.78;;;3.50;;
17382;SDS011;8809;51.892;8.384;2024-03-17T02:08:54;5.88;;;3.78;;
17382;SDS011;8809;51.892;8.384;2024-03-17T02:11:25;6.13;;;3.45;;
17382;SDS011;8809;51.892;8.384;2024-03-17T02:13:52;6.03;;;3.40;;
17382;SDS011;8809;51.892;8.384;2024-03-17T02:16:20;5.18;;;3.45;;
17382;SDS011;8809;51.892;8.384;2024-03-17T02:18:46;4.47;;;3.25;;
17382;SDS011;8809;51.892;8.384;2024-03-17T02:21:14;5.60;;;3.47;;
17382;SDS011;8809;51.892;8.384;2024-03-17T02:23:42;5.65;;;3.60;;
17382;SDS011;8809;51.892;8.384;2024-03-17T02:26:10;4.55;;;3.40;;
17382;SDS011;8809;51.892;8.384;2024-03-17T02:28:40;5.07;;;3.55;;
17382;SDS011;8809;51.892;8.384;2024-03-17T02:31:08;3.90;;;3.50;;
17382;SDS011;8809;51.892;8.384;2024-03-17T02:33:35;5.70;;;3.10;;
17382;SDS011;8809;51.892;8.384;2024-03-17T02:36:03;6.55;;;3.70;;
17382;SDS011;8809;51.892;8.384;2024-03-17T02:38:30;5.07;;;3.35;;
17382;SDS011;8809;51.892;8.384;2024-03-17T02:41:16;4.13;;;3.20;;
17382;SDS011;8809;51.892;8.384;2024-03-17T02:43:44;4.00;;;3.25;;
17382;SDS011;8809;51.892;8.384;2024-03-17T02:46:11;6.38;;;3.60;;
17382;SDS011;8809;51.892;8.384;2024-03-17T02:48:39;4.90;;;3.10;;
17382;SDS011;8809;51.892;8.384;2024-03-17T02:51:10;4.85;;;3.33;;
17382;SDS011;8809;51.892;8.384;2024-03-17T02:53:40;6.55;;;3.47;;
17382;SDS011;8809;51.892;8.384;2024-03-17T02:56:07;5.45;;;3.58;;
17382;SDS011;8809;51.892;8.384;2024-03-17T02:58:36;4.72;;;3.38;;
17382;SDS011;8809;51.892;8.384;2024-03-17T03:01:04;5.78;;;3.53;;
17382;SDS011;8809;51.892;8.384;2024-03-17T03:03:31;5.57;;;3.90;;
17382;SDS011;8809;51.892;8.384;2024-03-17T03:05:58;6.45;;;3.95;;
17382;SDS011;8809;51.892;8.384;2024-03-17T03:08:29;5.47;;;3.70;;
17382;SDS011;8809;51.892;8.384;2024-03-17T03:10:57;5.78;;;3.60;;
17382;SDS011;8809;51.892;8.384;2024-03-17T03:13:24;6.00;;;3.50;;
17382;SDS011;8809;51.892;8.384;2024-03-17T03:15:52;4.43;;;3.70;;
17382;SDS011;8809;51.892;8.384;2024-03-17T03:18:19;6.03;;;3.35;;
17382;SDS011;8809;51.892;8.384;2024-03-17T03:20:50;3.88;;;3.08;;
17382;SDS011;8809;51.892;8.384;2024-03-17T03:23:18;3.97;;;3.10;;
17382;SDS011;8809;51.892;8.384;2024-03-17T03:25:45;6.32;;;3.83;;
17382;SDS011;8809;51.892;8.384;2024-03-17T03:28:13;5.28;;;3.50;;
17382;SDS011;8809;51.892;8.384;2024-03-17T03:30:40;6.55;;;3.92;;
17382;SDS011;8809;51.892;8.384;2024-03-17T03:33:08;4.68;;;3.53;;
17382;SDS011;8809;51.892;8.384;2024-03-17T03:35:35;7.25;;;3.95;;
17382;SDS011;8809;51.892;8.384;2024-03-17T03:38:02;5.93;;;3.83;;
17382;SDS011;8809;51.892;8.384;2024-03-17T03:40:30;6.75;;;3.88;;
17382;SDS011;8809;51.892;8.384;2024-03-17T03:42:58;3.83;;;3.30;;
17382;SDS011;8809;51.892;8.384;2024-03-17T03:45:25;6.13;;;3.78;;
17382;SDS011;8809;51.892;8.384;2024-03-17T03:47:52;5.07;;;4.00;;
17382;SDS011;8809;51.892;8.384;2024-03-17T03:50:21;4.72;;;3.85;;
17382;SDS011;8809;51.892;8.384;2024-03-17T03:52:49;5.32;;;3.85;;
17382;SDS011;8809;51.892;8.384;2024-03-17T03:55:16;4.20;;;3.70;;
17382;SDS011;8809;51.892;8.384;2024-03-17T03:57:45;5.28;;;3.70;;
17382;SDS011;8809;51.892;8.384;2024-03-17T04:00:13;5.15;;;4.32;;
17382;SDS011;8809;51.892;8.384;2024-03-17T04:02:41;5.28;;;3.78;;
17382;SDS011;8809;51.892;8.384;2024-03-17T04:05:08;5.65;;;4.10;;
17382;SDS011;8809;51.892;8.384;2024-03-17T04:07:37;6.68;;;4.28;;
17382;SDS011;8809;51.892;8.384;2024-03-17T04:10:06;4.93;;;4.00;;
17382;SDS011;8809;51.892;8.384;2024-03-17T04:12:33;6.38;;;3.88;;
17382;SDS011;8809;51.892;8.384;2024-03-17T04:15:00;5.10;;;4.32;;
17382;SDS011;8809;51.892;8.384;2024-03-17T04:17:27;6.05;;;3.80;;
17382;SDS011;8809;51.892;8.384;2024-03-17T04:19:55;5.38;;;3.97;;
17382;SDS011;8809;51.892;8.384;2024-03-17T04:22:22;6.07;;;4.22;;
17382;SDS011;8809;51.892;8.384;2024-03-17T04:24:50;5.95;;;4.38;;
17382;SDS011;8809;51.892;8.384;2024-03-17T04:27:19;4.75;;;3.80;;
17382;SDS011;8809;51.892;8.384;2024-03-17T04:33:07;6.65;;;4.22;;
17382;SDS011;8809;51.892;8.384;2024-03-17T04:35:35;5.65;;;4.15;;
17382;SDS011;8809;51.892;8.384;2024-03-17T04:38:02;5.38;;;4.10;;
17382;SDS011;8809;51.892;8.384;2024-03-17T04:40:32;4.45;;;3.85;;
17382;SDS011;8809;51.892;8.384;2024-03-17T04:42:59;4.85;;;3.83;;
17382;SDS011;8809;51.892;8.384;2024-03-17T04:45:26;4.88;;;4.03;;
17382;SDS011;8809;51.892;8.384;2024-03-17T04:47:53;6.88;;;4.05;;
17382;SDS011;8809;51.892;8.384;2024-03-17T04:50:20;5.47;;;3.83;;
17382;SDS011;8809;51.892;8.384;2024-03-17T04:52:47;5.97;;;3.75;;
17382;SDS011;8809;51.892;8.384;2024-03-17T04:55:16;4.95;;;3.83;;
17382;SDS011;8809;51.892;8.384;2024-03-17T04:57:45;6.93;;;3.67;;
17382;SDS011;8809;51.892;8.384;2024-03-17T05:00:13;4.95;;;3.70;;
17382;SDS011;8809;51.892;8.384;2024-03-17T05:02:43;4.82;;;3.55;;
17382;SDS011;8809;51.892;8.384;2024-03-17T05:05:10;4.53;;;3.60;;
17382;SDS011;8809;51.892;8.384;2024-03-17T05:07:37;4.63;;;3.88;;
17382;SDS011;8809;51.892;8.384;2024-03-17T05:10:04;4.85;;;3.65;;
17382;SDS011;8809;51.892;8.384;2024-03-17T05:12:33;6.80;;;4.15;;
17382;SDS011;8809;51.892;8.384;2024-03-17T05:15:01;4.78;;;3.35;;
17382;SDS011;8809;51.892;8.384;2024-03-17T05:17:30;4.28;;;3.53;;
17382;SDS011;8809;51.892;8.384;2024-03-17T05:19:58;4.40;;;3.70;;
17382;SDS011;8809;51.892;8.384;2024-03-17T05:22:24;5.20;;;3.70;;
17382;SDS011;8809;51.892;8.384;2024-03-17T05:24:51;4.25;;;3.72;;
17382;SDS011;8809;51.892;8.384;2024-03-17T05:27:19;4.97;;;3.25;;
17382;SDS011;8809;51.892;8.384;2024-03-17T05:29:46;5.07;;;3.60;;
17382;SDS011;8809;51.892;8.384;2024-03-17T05:32:17;5.25;;;3.97;;
17382;SDS011;8809;51.892;8.384;2024-03-17T05:34:44;5.30;;;3.88;;
17382;SDS011;8809;51.892;8.384;2024-03-17T05:37:12;4.90;;;3.45;;
17382;SDS011;8809;51.892;8.384;2024-03-17T05:39:39;5.03;;;3.65;;
17382;SDS011;8809;51.892;8.384;2024-03-17T05:42:06;4.60;;;4.00;;
17382;SDS011;8809;51.892;8.384;2024-03-17T05:44:33;3.80;;;3.00;;
17382;SDS011;8809;51.892;8.384;2024-03-17T05:47:17;5.75;;;3.25;;
17382;SDS011;8809;51.892;8.384;2024-03-17T05:49:46;5.10;;;3.58;;
17382;SDS011;8809;51.892;8.384;2024-03-17T05:52:13;4.75;;;3.72;;
17382;SDS011;8809;51.892;8.384;2024-03-17T05:54:40;4.15;;;3.30;;
17382;SDS011;8809;51.892;8.384;2024-03-17T05:57:09;5.07;;;3.38;;
17382;SDS011;8809;51.892;8.384;2024-03-17T05:59:39;6.03;;;4.28;;
17382;SDS011;8809;51.892;8.384;2024-03-17T06:02:06;3.45;;;3.13;;
17382;SDS011;8809;51.892;8.384;2024-03-17T06:04:37;4.22;;;3.50;;
17382;SDS011;8809;51.892;8.384;2024-03-17T06:07:04;5.28;;;3.72;;
17382;SDS011;8809;51.892;8.384;2024-03-17T06:09:31;4.40;;;3.25;;
17382;SDS011;8809;51.892;8.384;2024-03-17T06:12:00;4.82;;;3.00;;
17382;SDS011;8809;51.892;8.384;2024-03-17T06:14:27;3.92;;;2.92;;
17382;SDS011;8809;51.892;8.384;2024-03-17T06:16:54;4.30;;;3.90;;
17382;SDS011;8809;51.892;8.384;2024-03-17T06:19:21;4.68;;;3.50;;
17382;SDS011;8809;51.892;8.384;2024-03-17T06:21:49;3.97;;;3.58;;
17382;SDS011;8809;51.892;8.384;2024-03-17T06:24:16;3.63;;;3.33;;
17382;SDS011;8809;51.892;8.384;2024-03-17T06:26:43;5.32;;;3.38;;
17382;SDS011;8809;51.892;8.384;2024-03-17T06:29:12;4.28;;;3.03;;
17382;SDS011;8809;51.892;8.384;2024-03-17T06:31:39;3.03;;;2.72;;
17382;SDS011;8809;51.892;8.384;2024-03-17T06:34:06;4.07;;;3.28;;
17382;SDS011;8809;51.892;8.384;2024-03-17T06:36:33;4.00;;;3.05;;
17382;SDS011;8809;51.892;8.384;2024-03-17T06:39:01;4.32;;;3.30;;
17382;SDS011;8809;51.892;8.384;2024-03-17T06:41:28;3.33;;;3.03;;
17382;SDS011;8809;51.892;8.384;2024-03-17T06:43:56;4.18;;;3.20;;
17382;SDS011;8809;51.892;8.384;2024-03-17T06:46:24;5.00;;;3.38;;
17382;SDS011;8809;51.892;8.384;2024-03-17T06:48:51;4.28;;;3.40;;
17382;SDS011;8809;51.892;8.384;2024-03-17T06:51:24;3.63;;;2.58;;
17382;SDS011;8809;51.892;8.384;2024-03-17T06:53:51;4.53;;;3.20;;
17382;SDS011;8809;51.892;8.384;2024-03-17T06:56:19;5.88;;;3.65;;
17382;SDS011;8809;51.892;8.384;2024-03-17T06:58:46;3.63;;;3.28;;
17382;SDS011;8809;51.892;8.384;2024-03-17T07:01:13;4.53;;;3.35;;
17382;SDS011;8809;51.892;8.384;2024-03-17T07:03:40;4.85;;;3.72;;
17382;SDS011;8809;51.892;8.384;2024-03-17T07:06:07;4.70;;;3.33;;
17382;SDS011;8809;51.892;8.384;2024-03-17T07:08:35;4.47;;;3.42;;
17382;SDS011;8809;51.892;8.384;2024-03-17T07:11:02;4.07;;;3.22;;
17382;SDS011;8809;51.892;8.384;2024-03-17T07:13:32;6.72;;;4.47;;
17382;SDS011;8809;51.892;8.384;2024-03-17T07:16:01;7.72;;;4.65;;
17382;SDS011;8809;51.892;8.384;2024-03-17T07:18:29;4.57;;;3.83;;
17382;SDS011;8809;51.892;8.384;2024-03-17T07:20:56;6.50;;;4.18;;
17382;SDS011;8809;51.892;8.384;2024-03-17T07:23:23;5.90;;;3.85;;
17382;SDS011;8809;51.892;8.384;2024-03-17T07:25:51;5.55;;;4.15;;
17382;SDS011;8809;51.892;8.384;2024-03-17T07:28:19;4.93;;;3.83;;
17382;SDS011;8809;51.892;8.384;2024-03-17T07:30:48;5.53;;;3.53;;
17382;SDS011;8809;51.892;8.384;2024-03-17T07:33:15;4.70;;;3.50;;
17382;SDS011;8809;51.892;8.384;2024-03-17T07:35:46;6.50;;;4.25;;
17382;SDS011;8809;51.892;8.384;2024-03-17T07:38:17;6.22;;;4.32;;
17382;SDS011;8809;51.892;8.384;2024-03-17T07:40:44;6.47;;;4.50;;
17382;SDS011;8809;51.892;8.384;2024-03-17T07:43:21;7.32;;;5.20;;
17382;SDS011;8809;51.892;8.384;2024-03-17T07:45:57;7.15;;;5.32;;
17382;SDS011;8809;51.892;8.384;2024-03-17T07:48:25;7.40;;;5.07;;
17382;SDS011;8809;51.892;8.384;2024-03-17T07:50:55;7.47;;;4.60;;
17382;SDS011;8809;51.892;8.384;2024-03-17T07:53:23;6.30;;;4.80;;
17382;SDS011;8809;51.892;8.384;2024-03-17T07:55:58;5.57;;;3.90;;
17382;SDS011;8809;51.892;8.384;2024-03-17T07:58:26;4.93;;;4.28;;
17382;SDS011;8809;51.892;8.384;2024-03-17T08:00:58;5.65;;;4.35;;
17382;SDS011;8809;51.892;8.384;2024-03-17T08:03:26;6.43;;;4.72;;
17382;SDS011;8809;51.892;8.384;2024-03-17T08:05:54;6.88;;;4.80;;
17382;SDS011;8809;51.892;8.384;2024-03-17T08:08:21;7.15;;;4.85;;
17382;SDS011;8809;51.892;8.384;2024-03-17T08:10:48;6.43;;;4.85;;
17382;SDS011;8809;51.892;8.384;2024-03-17T08:13:16;7.05;;;5.65;;
17382;SDS011;8809;51.892;8.384;2024-03-17T08:15:43;8.00;;;5.50;;
17382;SDS011;8809;51.892;8.384;2024-03-17T08:18:12;7.95;;;5.35;;
17382;SDS011;8809;51.892;8.384;2024-03-17T08:20:39;6.45;;;5.22;;
17382;SDS011;8809;51.892;8.384;2024-03-17T08:23:07;6.93;;;5.28;;
17382;SDS011;8809;51.892;8.384;2024-03-17T08:25:36;8.38;;;5.57;;
17382;SDS011;8809;51.892;8.384;2024-03-17T08:28:04;9.77;;;5.88;;
17382;SDS011;8809;51.892;8.384;2024-03-17T08:30:32;8.60;;;5.47;;
17382;SDS011;8809;51.892;8.384;2024-03-17T08:32:59;7.30;;;5.47;;
17382;SDS011;8809;51.892;8.384;2024-03-17T08:35:28;8.82;;;5.80;;
17382;SDS011;8809;51.892;8.384;2024-03-17T08:37:55;12.75;;;6.25;;
17382;SDS011;8809;51.892;8.384;2024-03-17T08:40:22;9.75;;;6.97;;
17382;SDS011;8809;51.892;8.384;2024-03-17T08:42:49;9.70;;;6.18;;
17382;SDS011;8809;51.892;8.384;2024-03-17T08:45:16;10.90;;;7.57;;
17382;SDS011;8809;51.892;8.384;2024-03-17T08:47:43;10.18;;;6.72;;
17382;SDS011;8809;51.892;8.384;2024-03-17T08:50:10;11.70;;;7.32;;
17382;SDS011;8809;51.892;8.384;2024-03-17T08:52:39;10.05;;;7.20;;
17382;SDS011;8809;51.892;8.384;2024-03-17T08:55:07;12.95;;;8.07;;
17382;SDS011;8809;51.892;8.384;2024-03-17T08:57:39;13.23;;;8.52;;
17382;SDS011;8809;51.892;8.384;2024-03-17T09:00:07;11.32;;;7.82;;
17382;SDS011;8809;51.892;8.384;2024-03-17T09:02:35;11.38;;;7.63;;
17382;SDS011;8809;51.892;8.384;2024-03-17T09:05:02;14.48;;;6.65;;
17382;SDS011;8809;51.892;8.384;2024-03-17T09:07:30;12.43;;;7.32;;
17382;SDS011;8809;51.892;8.384;2024-03-17T09:09:59;8.82;;;6.18;;
17382;SDS011;8809;51.892;8.384;2024-03-17T09:12:26;10.15;;;6.95;;
17382;SDS011;8809;51.892;8.384;2024-03-17T09:14:53;9.88;;;6.75;;
17382;SDS011;8809;51.892;8.384;2024-03-17T09:17:20;11.00;;;7.25;;
17382;SDS011;8809;51.892;8.384;2024-03-17T09:19:47;10.73;;;6.93;;
17382;SDS011;8809;51.892;8.384;2024-03-17T09:22:14;9.60;;;6.40;;
17382;SDS011;8809;51.892;8.384;2024-03-17T09:24:41;10.70;;;6.78;;
17382;SDS011;8809;51.892;8.384;2024-03-17T09:27:10;8.02;;;6.00;;
17382;SDS011;8809;51.892;8.384;2024-03-17T09:29:37;10.75;;;6.07;;
17382;SDS011;8809;51.892;8.384;2024-03-17T09:32:04;9.40;;;6.05;;
17382;SDS011;8809;51.892;8.384;2024-03-17T09:34:33;8.32;;;6.20;;
17382;SDS011;8809;51.892;8.384;2024-03-17T09:37:00;9.50;;;6.28;;
17382;SDS011;8809;51.892;8.384;2024-03-17T09:39:27;14.07;;;7.47;;
17382;SDS011;8809;51.892;8.384;2024-03-17T09:41:55;11.73;;;8.05;;
17382;SDS011;8809;51.892;8.384;2024-03-17T09:44:23;9.00;;;6.72;;
17382;SDS011;8809;51.892;8.384;2024-03-17T09:46:52;10.07;;;7.28;;
17382;SDS011;8809;51.892;8.384;2024-03-17T09:49:19;10.98;;;7.22;;
17382;SDS011;8809;51.892;8.384;2024-03-17T09:51:47;11.23;;;7.85;;
17382;SDS011;8809;51.892;8.384;2024-03-17T09:54:17;9.35;;;7.47;;
17382;SDS011;8809;51.892;8.384;2024-03-17T09:56:45;12.45;;;7.22;;
17382;SDS011;8809;51.892;8.384;2024-03-17T09:59:12;8.93;;;7.13;;
17382;SDS011;8809;51.892;8.384;2024-03-17T10:01:41;12.23;;;7.72;;
17382;SDS011;8809;51.892;8.384;2024-03-17T10:04:11;11.43;;;8.30;;
17382;SDS011;8809;51.892;8.384;2024-03-17T10:06:44;10.20;;;7.53;;
17382;SDS011;8809;51.892;8.384;2024-03-17T10:09:15;11.77;;;7.88;;
17382;SDS011;8809;51.892;8.384;2024-03-17T10:11:46;14.98;;;9.48;;
17382;SDS011;8809;51.892;8.384;2024-03-17T10:14:16;10.93;;;8.25;;
17382;SDS011;8809;51.892;8.384;2024-03-17T10:16:45;10.00;;;7.65;;
17382;SDS011;8809;51.892;8.384;2024-03-17T10:19:13;11.00;;;7.53;;
17382;SDS011;8809;51.892;8.384;2024-03-17T10:21:42;10.32;;;7.63;;
17382;SDS011;8809;51.892;8.384;2024-03-17T10:24:10;9.40;;;7.90;;
17382;SDS011;8809;51.892;8.384;2024-03-17T10:26:38;10.85;;;8.45;;
17382;SDS011;8809;51.892;8.384;2024-03-17T10:29:19;12.35;;;8.23;;
17382;SDS011;8809;51.892;8.384;2024-03-17T10:31:49;9.07;;;7.60;;
17382;SDS011;8809;51.892;8.384;2024-03-17T10:34:17;9.00;;;7.03;;
17382;SDS011;8809;51.892;8.384;2024-03-17T10:36:44;8.82;;;7.40;;
17382;SDS011;8809;51.892;8.384;2024-03-17T10:39:20;8.25;;;7.05;;
17382;SDS011;8809;51.892;8.384;2024-03-17T10:41:56;10.13;;;6.55;;
17382;SDS011;8809;51.892;8.384;2024-03-17T10:44:25;8.73;;;6.97;;
17382;SDS011;8809;51.892;8.384;2024-03-17T10:46:53;8.38;;;7.13;;
17382;SDS011;8809;51.892;8.384;2024-03-17T10:49:23;8.43;;;7.57;;
17382;SDS011;8809;51.892;8.384;2024-03-17T10:51:57;8.23;;;6.28;;
17382;SDS011;8809;51.892;8.384;2024-03-17T10:54:25;8.48;;;7.25;;
17382;SDS011;8809;51.892;8.384;2024-03-17T10:56:54;10.30;;;7.60;;
17382;SDS011;8809;51.892;8.384;2024-03-17T10:59:24;7.63;;;6.82;;
17382;SDS011;8809;51.892;8.384;2024-03-17T11:02:04;6.55;;;5.85;;
17382;SDS011;8809;51.892;8.384;2024-03-17T11:04:46;10.23;;;7.00;;
17382;SDS011;8809;51.892;8.384;2024-03-17T11:07:16;8.70;;;6.88;;
17382;SDS011;8809;51.892;8.384;2024-03-17T11:09:45;7.78;;;5.85;;
17382;SDS011;8809;51.892;8.384;2024-03-17T11:12:39;8.50;;;6.53;;
17382;SDS011;8809;51.892;8.384;2024-03-17T11:21:05;8.27;;;7.05;;
17382;SDS011;8809;51.892;8.384;2024-03-17T11:23:36;8.13;;;6.25;;
17382;SDS011;8809;51.892;8.384;2024-03-17T11:26:04;8.38;;;6.38;;
17382;SDS011;8809;51.892;8.384;2024-03-17T11:31:40;7.25;;;5.75;;
17382;SDS011;8809;51.892;8.384;2024-03-17T11:34:29;7.25;;;5.90;;
17382;SDS011;8809;51.892;8.384;2024-03-17T11:36:56;9.23;;;7.85;;
17382;SDS011;8809;51.892;8.384;2024-03-17T11:42:15;7.00;;;5.63;;
17382;SDS011;8809;51.892;8.384;2024-03-17T11:44:42;5.28;;;4.78;;
17382;SDS011;8809;51.892;8.384;2024-03-17T11:47:09;7.57;;;5.30;;
17382;SDS011;8809;51.892;8.384;2024-03-17T11:49:38;6.18;;;5.57;;
17382;SDS011;8809;51.892;8.384;2024-03-17T11:52:07;6.15;;;5.55;;
17382;SDS011;8809;51.892;8.384;2024-03-17T11:54:36;9.95;;;7.03;;
17382;SDS011;8809;51.892;8.384;2024-03-17T11:57:03;9.20;;;7.32;;
17382;SDS011;8809;51.892;8.384;2024-03-17T11:59:31;8.27;;;7.05;;
17382;SDS011;8809;51.892;8.384;2024-03-17T12:02:20;11.20;;;8.90;;
17382;SDS011;8809;51.892;8.384;2024-03-17T12:04:49;7.97;;;6.70;;
17382;SDS011;8809;51.892;8.384;2024-03-17T12:07:17;6.93;;;6.15;;
17382;SDS011;8809;51.892;8.384;2024-03-17T12:09:46;9.68;;;8.07;;
17382;SDS011;8809;51.892;8.384;2024-03-17T12:12:17;8.50;;;6.75;;
17382;SDS011;8809;51.892;8.384;2024-03-17T12:14:45;7.13;;;6.43;;
17382;SDS011;8809;51.892;8.384;2024-03-17T12:17:22;7.47;;;6.78;;
17382;SDS011;8809;51.892;8.384;2024-03-17T12:19:51;7.70;;;6.60;;
17382;SDS011;8809;51.892;8.384;2024-03-17T12:24:35;7.43;;;6.22;;
17382;SDS011;8809;51.892;8.384;2024-03-17T12:27:04;7.57;;;5.60;;
17382;SDS011;8809;51.892;8.384;2024-03-17T12:29:31;10.55;;;7.95;;
17382;SDS011;8809;51.892;8.384;2024-03-17T12:32:01;8.70;;;6.45;;
17382;SDS011;8809;51.892;8.384;2024-03-17T12:34:31;10.07;;;7.88;;
17382;SDS011;8809;51.892;8.384;2024-03-17T12:36:59;7.50;;;6.70;;
17382;SDS011;8809;51.892;8.384;2024-03-17T12:39:26;7.10;;;6.40;;
17382;SDS011;8809;51.892;8.384;2024-03-17T12:42:04;7.22;;;6.38;;
17382;SDS011;8809;51.892;8.384;2024-03-17T12:44:31;10.52;;;7.60;;
17382;SDS011;8809;51.892;8.384;2024-03-17T12:47:00;9.15;;;7.85;;
17382;SDS011;8809;51.892;8.384;2024-03-17T12:49:27;6.75;;;6.07;;
17382;SDS011;8809;51.892;8.384;2024-03-17T12:51:55;8.57;;;7.10;;
17382;SDS011;8809;51.892;8.384;2024-03-17T13:25:31;7.57;;;6.50;;
17382;SDS011;8809;51.892;8.384;2024-03-17T13:28:01;9.02;;;6.53;;
17382;SDS011;8809;51.892;8.384;2024-03-17T13:30:29;6.72;;;5.55;;
17382;SDS011;8809;51.892;8.384;2024-03-17T13:32:56;6.63;;;5.70;;
17382;SDS011;8809;51.892;8.384;2024-03-17T13:35:24;7.65;;;6.15;;
17382;SDS011;8809;51.892;8.384;2024-03-17T13:37:52;6.68;;;5.93;;
17382;SDS011;8809;51.892;8.384;2024-03-17T13:40:20;7.70;;;5.95;;
17382;SDS011;8809;51.892;8.384;2024-03-17T13:42:50;7.70;;;5.65;;
17382;SDS011;8809;51.892;8.384;2024-03-17T13:45:19;5.85;;;4.97;;
17382;SDS011;8809;51.892;8.384;2024-03-17T13:47:49;7.65;;;5.20;;
17382;SDS011;8809;51.892;8.384;2024-03-17T13:50:18;5.32;;;4.80;;
17382;SDS011;8809;51.892;8.384;2024-03-17T13:52:45;5.63;;;4.72;;
17382;SDS011;8809;51.892;8.384;2024-03-17T13:55:14;8.23;;;5.30;;
17382;SDS011;8809;51.892;8.384;2024-03-17T13:57:43;6.40;;;5.25;;
17382;SDS011;8809;51.892;8.384;2024-03-17T14:00:13;6.20;;;5.30;;
17382;SDS011;8809;51.892;8.384;2024-03-17T14:02:41;5.55;;;4.55;;
17382;SDS011;8809;51.892;8.384;2024-03-17T14:05:09;5.50;;;4.80;;
17382;SDS011;8809;51.892;8.384;2024-03-17T14:07:39;11.93;;;7.38;;
17382;SDS011;8809;51.892;8.384;2024-03-17T14:10:06;6.82;;;5.82;;
17382;SDS011;8809;51.892;8.384;2024-03-17T14:12:34;5.00;;;4.50;;
17382;SDS011;8809;51.892;8.384;2024-03-17T14:15:01;6.68;;;5.18;;
17382;SDS011;8809;51.892;8.384;2024-03-17T14:17:31;5.18;;;4.60;;
17382;SDS011;8809;51.892;8.384;2024-03-17T14:19:59;5.40;;;4.50;;
17382;SDS011;8809;51.892;8.384;2024-03-17T14:22:26;6.35;;;5.07;;
17382;SDS011;8809;51.892;8.384;2024-03-17T14:24:53;5.70;;;4.63;;
17382;SDS011;8809;51.892;8.384;2024-03-17T14:27:20;8.05;;;6.05;;
17382;SDS011;8809;51.892;8.384;2024-03-17T14:29:47;7.57;;;5.80;;
17382;SDS011;8809;51.892;8.384;2024-03-17T14:32:14;7.15;;;5.00;;
17382;SDS011;8809;51.892;8.384;2024-03-17T14:34:42;7.00;;;6.05;;
17382;SDS011;8809;51.892;8.384;2024-03-17T14:37:09;7.72;;;5.55;;
17382;SDS011;8809;51.892;8.384;2024-03-17T14:39:36;6.32;;;4.97;;
17382;SDS011;8809;51.892;8.384;2024-03-17T14:42:03;6.82;;;5.47;;
17382;SDS011;8809;51.892;8.384;2024-03-17T14:44:31;8.80;;;5.38;;
17382;SDS011;8809;51.892;8.384;2024-03-17T14:46:58;7.65;;;5.85;;
17382;SDS011;8809;51.892;8.384;2024-03-17T14:49:25;6.50;;;4.80;;
17382;SDS011;8809;51.892;8.384;2024-03-17T14:51:53;5.60;;;5.03;;
17382;SDS011;8809;51.892;8.384;2024-03-17T14:54:22;8.60;;;5.70;;
17382;SDS011;8809;51.892;8.384;2024-03-17T14:56:48;7.03;;;5.25;;
17382;SDS011;8809;51.892;8.384;2024-03-17T14:59:16;6.97;;;5.55;;
17382;SDS011;8809;51.892;8.384;2024-03-17T15:01:44;6.85;;;4.88;;
17382;SDS011;8809;51.892;8.384;2024-03-17T15:04:11;6.63;;;4.85;;
17382;SDS011;8809;51.892;8.384;2024-03-17T15:06:38;6.85;;;4.90;;
17382;SDS011;8809;51.892;8.384;2024-03-17T15:09:07;6.25;;;4.68;;
17382;SDS011;8809;51.892;8.384;2024-03-17T15:11:34;5.43;;;4.68;;
17382;SDS011;8809;51.892;8.384;2024-03-17T15:14:01;7.55;;;5.88;;
17382;SDS011;8809;51.892;8.384;2024-03-17T15:16:29;7.55;;;5.85;;
17382;SDS011;8809;51.892;8.384;2024-03-17T15:18:56;6.78;;;5.10;;
17382;SDS011;8809;51.892;8.384;2024-03-17T15:21:23;8.85;;;5.63;;
17382;SDS011;8809;51.892;8.384;2024-03-17T15:23:50;7.32;;;5.43;;
17382;SDS011;8809;51.892;8.384;2024-03-17T15:26:19;8.40;;;5.40;;
17382;SDS011;8809;51.892;8.384;2024-03-17T15:28:46;5.90;;;5.00;;
17382;SDS011;8809;51.892;8.384;2024-03-17T15:31:13;8.50;;;5.97;;
17382;SDS011;8809;51.892;8.384;2024-03-17T15:33:40;8.50;;;5.60;;
17382;SDS011;8809;51.892;8.384;2024-03-17T15:36:07;8.88;;;6.28;;
17382;SDS011;8809;51.892;8.384;2024-03-17T15:38:35;6.60;;;5.70;;
17382;SDS011;8809;51.892;8.384;2024-03-17T15:41:03;6.68;;;5.30;;
17382;SDS011;8809;51.892;8.384;2024-03-17T15:43:33;7.25;;;5.18;;
17382;SDS011;8809;51.892;8.384;2024-03-17T15:45:59;6.68;;;5.13;;
17382;SDS011;8809;51.892;8.384;2024-03-17T15:48:27;7.00;;;5.20;;
17382;SDS011;8809;51.892;8.384;2024-03-17T15:50:55;6.30;;;5.57;;
17382;SDS011;8809;51.892;8.384;2024-03-17T15:53:22;6.45;;;5.05;;
17382;SDS011;8809;51.892;8.384;2024-03-17T15:55:54;5.18;;;4.68;;